Time;durP1;ratioP1;P1;durP2;ratioP2;P2;SDS_P1;SDS_P2;PMS_P1;PMS_P2;Temp;Humidity;BMP_temperature;BMP_pressure;BME280_temperature;BME280_humidity;BME280_pressure;Samples;Min_cycle;Max_cycle;Signal;HPM_P1;HPM_P2
2023/09/27 00:00:01;;;;;;;2.57;2.37;;;25.60;76.50;;;;;;4996969;28;20961;-88
2023/09/27 00:02:28;;;;;;;2.60;1.93;;;25.60;76.50;;;;;;4997029;28;20451;-88
2023/09/27 00:04:54;;;;;;;2.77;2.57;;;25.60;76.50;;;;;;4997063;28;20463;-88
2023/09/27 00:07:21;;;;;;;2.47;2.27;;;25.60;76.50;;;;;;4997180;28;20436;-88
2023/09/27 00:09:48;;;;;;;1.87;1.77;;;25.60;76.40;;;;;;4997053;28;20481;-88
2023/09/27 00:12:15;;;;;;;2.10;1.90;;;25.60;76.40;;;;;;4997058;28;20444;-88
2023/09/27 00:14:43;;;;;;;2.47;2.27;;;25.60;76.50;;;;;;4996868;28;20939;-88
2023/09/27 00:17:11;;;;;;;2.00;1.90;;;25.60;76.50;;;;;;4997120;28;20449;-88
2023/09/27 00:19:37;;;;;;;2.63;1.80;;;25.60;76.40;;;;;;4996798;28;20479;-88
2023/09/27 00:22:04;;;;;;;2.00;1.90;;;25.60;76.40;;;;;;4996652;28;20466;-89
2023/09/27 00:24:31;;;;;;;1.90;1.80;;;25.60;76.40;;;;;;4996624;28;20470;-88
2023/09/27 00:26:58;;;;;;;1.80;1.70;;;25.60;76.40;;;;;;4996607;28;20509;-88
2023/09/27 00:29:25;;;;;;;2.00;1.90;;;25.60;76.40;;;;;;4996184;28;20994;-88
2023/09/27 00:31:53;;;;;;;2.23;2.00;;;25.50;76.30;;;;;;4996672;28;20575;-89
2023/09/27 00:34:20;;;;;;;2.13;2.00;;;25.60;76.30;;;;;;4996602;28;20440;-88
2023/09/27 00:36:47;;;;;;;1.87;1.77;;;25.50;76.20;;;;;;4996672;28;20448;-87
2023/09/27 00:39:14;;;;;;;2.37;2.20;;;25.60;76.30;;;;;;4996538;28;20447;-88
2023/09/27 00:41:41;;;;;;;1.80;1.70;;;25.50;76.20;;;;;;4996586;28;20440;-88
2023/09/27 00:44:07;;;;;;;2.03;1.93;;;25.50;76.20;;;;;;4996436;28;20932;-88
2023/09/27 00:46:34;;;;;;;2.23;2.00;;;25.50;76.20;;;;;;4996475;28;20447;-89
2023/09/27 00:49:03;;;;;;;2.83;2.33;;;25.50;76.20;;;;;;4996360;28;20447;-88
2023/09/27 00:51:30;;;;;;;1.93;1.83;;;25.60;76.30;;;;;;4995838;28;20502;-88
2023/09/27 00:53:58;;;;;;;2.00;1.90;;;25.60;76.30;;;;;;5003140;28;20451;-88
2023/09/27 00:56:26;;;;;;;1.60;1.50;;;25.50;76.20;;;;;;4996437;28;20444;-88
2023/09/27 00:58:54;;;;;;;2.20;2.00;;;25.50;76.20;;;;;;4996083;28;20543;-88
2023/09/27 01:01:22;;;;;;;1.80;1.70;;;25.50;76.20;;;;;;4995738;28;20440;-88
2023/09/27 01:03:50;;;;;;;2.33;2.13;;;25.50;76.20;;;;;;4996182;28;21006;-88
2023/09/27 01:06:19;;;;;;;1.90;1.80;;;25.60;76.30;;;;;;4995934;28;20451;-89
2023/09/27 01:08:46;;;;;;;2.23;1.90;;;25.50;76.10;;;;;;4995992;28;20823;-88
2023/09/27 01:11:13;;;;;;;2.30;2.10;;;25.50;76.10;;;;;;4995568;28;20844;-88
2023/09/27 01:13:40;;;;;;;2.10;2.00;;;25.60;76.20;;;;;;4996119;28;20878;-88
2023/09/27 01:16:07;;;;;;;2.53;2.00;;;25.60;76.10;;;;;;4996023;28;20438;-88
2023/09/27 01:18:33;;;;;;;2.00;1.70;;;25.60;76.10;;;;;;4995593;28;20531;-88
2023/09/27 01:21:01;;;;;;;2.20;2.10;;;25.50;76.10;;;;;;4995936;28;20527;-88
2023/09/27 01:23:30;;;;;;;2.93;2.10;;;25.50;76.00;;;;;;4996145;28;20456;-88
2023/09/27 01:25:58;;;;;;;2.70;2.50;;;25.60;76.10;;;;;;4995750;28;20797;-88
2023/09/27 01:28:26;;;;;;;2.13;2.03;;;25.50;76.00;;;;;;4995432;28;21022;-88
2023/09/27 01:30:52;;;;;;;2.07;1.87;;;25.50;76.00;;;;;;4995344;28;20502;-88
2023/09/27 01:33:19;;;;;;;2.40;2.20;;;25.50;76.00;;;;;;4995397;28;20530;-89
2023/09/27 01:35:46;;;;;;;2.43;2.00;;;25.50;76.00;;;;;;4995228;28;20523;-88
2023/09/27 01:38:14;;;;;;;2.43;2.30;;;25.50;76.00;;;;;;4995194;28;20452;-88
2023/09/27 01:40:43;;;;;;;2.13;1.93;;;25.50;75.90;;;;;;4994710;28;20443;-88
2023/09/27 01:43:10;;;;;;;2.40;2.20;;;25.60;76.00;;;;;;4995508;28;20443;-88
2023/09/27 01:45:37;;;;;;;1.90;1.70;;;25.50;75.90;;;;;;4995378;28;20462;-88
2023/09/27 01:48:05;;;;;;;4.80;1.93;;;25.50;75.80;;;;;;4995236;28;20448;-88
2023/09/27 01:50:34;;;;;;;2.27;2.10;;;25.50;75.80;;;;;;4994976;28;20503;-88
2023/09/27 01:53:01;;;;;;;2.00;1.90;;;25.50;75.80;;;;;;4994235;28;20811;-88
2023/09/27 01:55:28;;;;;;;2.37;2.17;;;25.60;75.90;;;;;;4995020;28;20451;-88
2023/09/27 01:57:57;;;;;;;2.17;2.00;;;25.50;75.80;;;;;;4995207;28;20450;-88
2023/09/27 02:00:24;;;;;;;2.10;2.00;;;25.50;75.90;;;;;;4994999;28;20522;-89
2023/09/27 02:02:52;;;;;;;2.90;1.83;;;25.50;75.80;;;;;;4994838;28;20444;-88
2023/09/27 02:05:19;;;;;;;2.00;1.80;;;25.50;75.70;;;;;;4994852;28;20495;-88
2023/09/27 02:07:47;;;;;;;2.20;2.00;;;25.50;75.80;;;;;;4994915;28;20471;-89
2023/09/27 02:10:14;;;;;;;2.40;2.20;;;25.50;75.70;;;;;;4994724;28;20535;-88
2023/09/27 02:12:41;;;;;;;2.10;2.00;;;25.50;75.70;;;;;;4994717;28;20451;-88
2023/09/27 02:15:11;;;;;;;2.03;1.83;;;25.50;75.60;;;;;;4994716;28;20432;-88
2023/09/27 02:17:38;;;;;;;1.90;1.80;;;25.50;75.70;;;;;;4994846;28;20436;-88
2023/09/27 02:20:08;;;;;;;1.80;1.70;;;25.50;75.70;;;;;;4994545;28;20951;-87
2023/09/27 02:22:35;;;;;;;1.90;1.80;;;25.50;75.70;;;;;;4994508;28;20544;-88
2023/09/27 02:25:02;;;;;;;2.50;2.30;;;25.50;75.60;;;;;;4994486;28;20474;-88
2023/09/27 02:27:29;;;;;;;2.20;2.00;;;25.50;75.60;;;;;;4994497;28;20487;-88
2023/09/27 02:29:56;;;;;;;2.37;2.10;;;25.50;75.60;;;;;;4994439;28;20440;-88
2023/09/27 02:32:24;;;;;;;2.30;2.20;;;25.50;75.60;;;;;;4994414;28;20840;-88
2023/09/27 02:34:51;;;;;;;1.80;1.70;;;25.50;75.60;;;;;;4994277;28;20443;-88
2023/09/27 02:37:20;;;;;;;2.10;1.90;;;25.50;75.60;;;;;;4994253;28;21018;-88
2023/09/27 02:39:47;;;;;;;2.10;2.00;;;25.50;75.50;;;;;;4994149;28;20467;-88
2023/09/27 02:42:14;;;;;;;2.40;1.90;;;25.50;76.30;;;;;;4994226;28;20448;-88
2023/09/27 02:44:41;;;;;;;2.13;1.77;;;25.50;75.50;;;;;;4994224;28;20543;-88
2023/09/27 02:47:08;;;;;;;1.80;1.70;;;25.50;75.50;;;;;;4994302;28;21020;-88
2023/09/27 02:49:37;;;;;;;3.10;2.00;;;25.50;75.50;;;;;;4994062;28;20869;-88
2023/09/27 02:52:04;;;;;;;1.93;1.83;;;25.50;75.40;;;;;;4993595;28;20505;-88
2023/09/27 02:54:32;;;;;;;2.20;2.00;;;25.50;75.40;;;;;;4992886;28;20462;-89
2023/09/27 02:56:58;;;;;;;2.00;1.80;;;25.50;75.40;;;;;;4994126;28;20507;-88
2023/09/27 02:59:25;;;;;;;2.30;2.10;;;25.50;75.40;;;;;;4993833;28;20440;-88
2023/09/27 03:01:52;;;;;;;2.20;2.00;;;25.50;75.40;;;;;;4994245;28;20861;-88
2023/09/27 03:04:19;;;;;;;2.63;2.43;;;25.50;75.30;;;;;;4993974;28;20444;-89
2023/09/27 03:06:48;;;;;;;2.10;2.00;;;25.50;75.30;;;;;;4994030;28;20935;-89
2023/09/27 03:09:16;;;;;;;1.93;1.83;;;25.50;75.30;;;;;;4994118;28;20511;-89
2023/09/27 03:11:43;;;;;;;2.13;2.00;;;25.40;75.20;;;;;;4993946;28;20491;-88
2023/09/27 03:14:11;;;;;;;2.40;2.20;;;25.50;75.30;;;;;;4994033;28;20475;-88
2023/09/27 03:16:39;;;;;;;1.73;1.63;;;25.40;75.20;;;;;;4994004;28;20452;-88
2023/09/27 03:19:06;;;;;;;2.30;2.10;;;25.40;75.20;;;;;;4993837;28;20454;-88
2023/09/27 03:21:33;;;;;;;2.17;1.93;;;25.40;75.20;;;;;;4994094;28;20447;-88
2023/09/27 03:24:01;;;;;;;2.33;2.13;;;25.40;75.20;;;;;;4993930;28;20444;-88
2023/09/27 03:26:28;;;;;;;2.30;1.83;;;25.40;75.20;;;;;;4994041;28;20448;-88
2023/09/27 03:28:54;;;;;;;2.23;1.87;;;25.40;75.20;;;;;;4993708;28;20935;-88
2023/09/27 03:31:22;;;;;;;1.87;1.77;;;25.40;75.20;;;;;;4993774;28;20530;-88
2023/09/27 03:33:48;;;;;;;2.13;1.97;;;25.50;75.20;;;;;;4993899;28;20444;-88
2023/09/27 03:36:15;;;;;;;2.07;1.90;;;25.40;75.10;;;;;;4993888;28;20444;-88
2023/09/27 03:38:42;;;;;;;2.43;2.23;;;25.40;75.10;;;;;;4994024;28;20852;-88
2023/09/27 03:41:11;;;;;;;2.77;1.90;;;25.40;75.10;;;;;;4993990;28;20514;-88
2023/09/27 03:43:38;;;;;;;2.50;2.30;;;25.40;75.10;;;;;;4993945;28;20962;-88
2023/09/27 03:46:05;;;;;;;1.77;1.67;;;25.40;75.10;;;;;;4993589;28;20524;-88
2023/09/27 03:48:33;;;;;;;2.23;1.77;;;25.40;75.10;;;;;;4993600;28;20531;-88
2023/09/27 03:51:00;;;;;;;2.10;2.00;;;25.40;75.00;;;;;;4993502;28;20499;-88
2023/09/27 03:53:27;;;;;;;1.93;1.83;;;25.40;75.10;;;;;;4999421;28;20807;-88
2023/09/27 03:55:54;;;;;;;2.10;1.90;;;25.40;75.10;;;;;;4993999;28;20526;-88
2023/09/27 03:58:22;;;;;;;1.80;1.70;;;25.40;75.10;;;;;;4993440;28;20439;-88
2023/09/27 04:00:49;;;;;;;1.83;1.70;;;25.40;75.00;;;;;;4993507;28;20440;-88
2023/09/27 04:03:16;;;;;;;2.13;1.93;;;25.40;75.00;;;;;;4993590;28;20474;-88
2023/09/27 04:05:43;;;;;;;1.77;1.63;;;25.40;75.00;;;;;;4996469;28;20447;-88
2023/09/27 04:08:11;;;;;;;1.77;1.67;;;25.40;75.00;;;;;;4997010;28;20454;-88
2023/09/27 04:10:38;;;;;;;1.73;1.63;;;25.40;74.90;;;;;;4996932;28;20463;-88
2023/09/27 04:13:05;;;;;;;2.97;1.90;;;25.40;75.10;;;;;;4996957;28;20450;-88
2023/09/27 04:15:35;;;;;;;2.10;2.00;;;25.40;74.90;;;;;;4996908;28;20920;-88
2023/09/27 04:18:02;;;;;;;2.40;2.20;;;25.40;74.90;;;;;;4997031;28;20799;-88
2023/09/27 04:20:29;;;;;;;1.80;1.70;;;25.40;75.00;;;;;;4996424;28;20440;-88
2023/09/27 04:22:56;;;;;;;2.00;1.90;;;25.40;75.00;;;;;;4996683;28;20476;-88
2023/09/27 04:25:23;;;;;;;1.83;1.73;;;25.40;75.00;;;;;;4996711;28;20440;-88
2023/09/27 04:27:50;;;;;;;1.77;1.67;;;25.40;75.00;;;;;;4996597;28;20535;-89
2023/09/27 04:30:19;;;;;;;1.67;1.57;;;25.40;75.80;;;;;;4996398;28;20542;-88
2023/09/27 04:32:50;;;;;;;1.63;1.53;;;25.40;74.90;;;;;;4996704;28;20491;-88
2023/09/27 04:35:17;;;;;;;2.20;2.00;;;25.40;75.00;;;;;;4996651;28;20796;-89
2023/09/27 04:37:44;;;;;;;1.73;1.63;;;25.40;74.90;;;;;;4996641;28;20538;-88
2023/09/27 04:40:13;;;;;;;1.47;1.37;;;25.40;74.80;;;;;;4996474;28;20447;-88
2023/09/27 04:42:40;;;;;;;2.00;1.80;;;25.40;74.90;;;;;;4996650;28;20866;-88
2023/09/27 04:45:09;;;;;;;1.70;1.60;;;25.40;74.80;;;;;;4996223;28;20436;-88
2023/09/27 04:47:35;;;;;;;2.23;2.03;;;25.40;74.80;;;;;;4996160;28;20440;-88
2023/09/27 04:50:06;;;;;;;2.13;1.93;;;25.40;74.80;;;;;;4996240;28;20474;-88
2023/09/27 04:52:33;;;;;;;1.90;1.80;;;25.40;74.80;;;;;;4995454;28;20994;-88
2023/09/27 04:55:00;;;;;;;2.10;2.00;;;25.30;74.70;;;;;;4995924;28;20458;-88
2023/09/27 04:57:26;;;;;;;2.00;1.90;;;25.40;74.80;;;;;;4996007;28;20953;-88
2023/09/27 04:59:53;;;;;;;1.97;1.83;;;25.40;74.70;;;;;;4996214;28;20800;-88
2023/09/27 05:02:20;;;;;;;2.03;1.93;;;25.30;74.70;;;;;;4996261;28;20431;-88
2023/09/27 05:04:47;;;;;;;1.77;1.67;;;25.30;74.60;;;;;;4996043;28;20443;-88
2023/09/27 05:07:17;;;;;;;2.03;1.93;;;25.40;74.70;;;;;;4995795;28;20436;-88
2023/09/27 05:09:43;;;;;;;3.00;1.80;;;25.40;74.60;;;;;;4995868;28;20440;-88
2023/09/27 05:12:11;;;;;;;2.30;2.10;;;25.30;74.60;;;;;;4995978;28;20491;-88
2023/09/27 05:14:38;;;;;;;1.73;1.63;;;25.40;74.50;;;;;;4995568;28;20442;-88
2023/09/27 05:17:05;;;;;;;2.30;2.10;;;25.40;74.60;;;;;;4994893;28;20443;-89
2023/09/27 05:19:32;;;;;;;1.97;1.87;;;25.30;74.60;;;;;;4995730;28;20440;-89
2023/09/27 05:22:00;;;;;;;2.37;2.17;;;25.30;74.40;;;;;;4995697;28;20817;-88
2023/09/27 05:24:28;;;;;;;2.00;1.90;;;25.40;74.50;;;;;;4995655;28;20600;-88
2023/09/27 05:26:57;;;;;;;1.83;1.73;;;25.30;74.40;;;;;;4995767;28;20436;-88
2023/09/27 05:29:24;;;;;;;2.27;1.90;;;25.30;74.50;;;;;;4994563;28;20456;-88
2023/09/27 05:31:51;;;;;;;2.07;1.87;;;25.30;74.40;;;;;;4994845;28;20959;-88
2023/09/27 05:34:18;;;;;;;2.10;2.00;;;25.30;74.40;;;;;;4995569;28;20440;-88
2023/09/27 05:36:46;;;;;;;2.00;1.87;;;25.40;74.40;;;;;;4995564;28;20527;-91
2023/09/27 05:39:13;;;;;;;2.20;2.00;;;25.30;74.30;;;;;;4995524;28;20456;-91
2023/09/27 05:41:41;;;;;;;3.43;2.30;;;25.30;74.50;;;;;;4995023;28;20547;-91
2023/09/27 05:44:08;;;;;;;3.60;3.30;;;25.20;74.60;;;;;;4995037;28;20442;-91
2023/09/27 05:46:34;;;;;;;5.70;4.83;;;25.20;73.60;;;;;;4995012;28;20436;-91
2023/09/27 05:49:03;;;;;;;5.87;3.60;;;25.10;71.50;;;;;;4994737;28;20494;-91
2023/09/27 05:51:30;;;;;;;3.93;3.63;;;25.00;71.10;;;;;;4994075;28;20475;-90
2023/09/27 05:53:57;;;;;;;4.30;3.67;;;24.80;71.40;;;;;;4994402;28;20514;-90
2023/09/27 05:56:24;;;;;;;4.50;4.07;;;24.70;71.40;;;;;;4993471;28;20436;-91
2023/09/27 05:58:53;;;;;;;4.50;4.10;;;24.60;71.50;;;;;;4993276;28;20444;-91
2023/09/27 06:01:20;;;;;;;5.93;3.90;;;24.50;71.40;;;;;;4993018;28;20452;-90
2023/09/27 06:03:46;;;;;;;9.23;5.17;;;24.50;71.80;;;;;;4992724;28;20444;-90
2023/09/27 06:06:14;;;;;;;5.13;4.30;;;24.40;72.10;;;;;;4992990;28;20452;-91
2023/09/27 06:08:41;;;;;;;7.20;4.80;;;24.40;72.30;;;;;;4994373;28;20527;-91
2023/09/27 06:11:09;;;;;;;5.10;4.70;;;24.40;72.30;;;;;;4994454;28;20440;-89
2023/09/27 06:13:37;;;;;;;4.50;4.10;;;24.30;72.40;;;;;;4994693;28;20498;-91
2023/09/27 06:16:13;;;;;;;4.53;3.70;;;24.30;72.70;;;;;;4995117;28;20472;-91
2023/09/27 06:18:40;;;;;;;3.87;3.30;;;24.40;73.50;;;;;;4994814;28;20436;-91
2023/09/27 06:21:07;;;;;;;3.40;3.10;;;24.40;74.30;;;;;;4994460;28;20543;-91
2023/09/27 06:23:35;;;;;;;6.00;2.93;;;24.50;74.80;;;;;;4994504;28;20844;-91
2023/09/27 06:26:02;;;;;;;3.67;2.97;;;24.50;74.90;;;;;;4994347;28;20475;-91
2023/09/27 06:28:29;;;;;;;2.67;2.47;;;24.60;75.10;;;;;;4994471;28;20447;-91
2023/09/27 06:30:55;;;;;;;3.50;3.20;;;24.60;75.10;;;;;;4994416;28;20442;-91
2023/09/27 06:33:24;;;;;;;3.70;3.20;;;24.70;75.20;;;;;;4999334;28;20487;-88
2023/09/27 06:35:50;;;;;;;2.50;2.30;;;24.70;75.10;;;;;;4994581;28;20455;-87
2023/09/27 06:38:21;;;;;;;3.80;2.73;;;24.70;75.00;;;;;;4999701;28;20830;-91
2023/09/27 06:40:49;;;;;;;3.50;3.20;;;24.80;75.00;;;;;;5009875;28;20443;-94
2023/09/27 06:43:16;;;;;;;2.57;2.37;;;24.80;74.90;;;;;;4999014;28;20478;-90
2023/09/27 06:45:43;;;;;;;2.63;2.43;;;24.90;74.90;;;;;;5014116;28;20439;-89
2023/09/27 06:48:10;;;;;;;4.23;3.30;;;24.90;74.90;;;;;;5005778;28;20452;-91
2023/09/27 06:50:41;;;;;;;3.53;3.23;;;24.90;74.90;;;;;;4985969;28;20464;-92
2023/09/27 06:53:09;;;;;;;3.30;3.07;;;24.90;75.00;;;;;;4993726;28;20990;-90
2023/09/27 06:55:36;;;;;;;2.87;2.67;;;24.90;75.00;;;;;;4994414;28;20443;-91
2023/09/27 06:58:04;;;;;;;5.40;3.17;;;25.00;75.10;;;;;;4994820;28;20440;-91
2023/09/27 07:00:31;;;;;;;3.37;2.83;;;25.00;75.20;;;;;;4981925;28;20576;-93
2023/09/27 07:02:58;;;;;;;2.80;2.60;;;25.00;75.30;;;;;;4995508;28;20450;-94
2023/09/27 07:05:26;;;;;;;3.17;2.87;;;25.10;75.30;;;;;;5008777;28;20505;-89
2023/09/27 07:07:55;;;;;;;3.33;3.03;;;25.10;75.30;;;;;;4978768;28;20832;-90
2023/09/27 07:10:24;;;;;;;2.73;2.53;;;25.10;75.70;;;;;;4993841;28;20449;-91
2023/09/27 07:13:01;;;;;;;5.47;2.63;;;25.00;75.60;;;;;;4980550;28;20488;-94
2023/09/27 07:15:28;;;;;;;3.53;2.93;;;25.10;75.80;;;;;;4979806;28;20437;-96
2023/09/27 07:17:55;;;;;;;5.77;3.00;;;25.00;76.30;;;;;;4979061;28;20444;-96
2023/09/27 07:20:27;;;;;;;3.50;3.30;;;25.00;76.30;;;;;;4981730;28;20441;-96
2023/09/27 07:23:19;;;;;;;3.70;3.40;;;24.90;76.30;;;;;;4982913;28;20461;-92
2023/09/27 07:25:54;;;;;;;3.03;2.77;;;24.90;76.60;;;;;;4982320;28;20444;-96
2023/09/27 07:28:21;;;;;;;3.50;3.20;;;24.90;76.80;;;;;;4987332;28;20432;-96
2023/09/27 07:33:23;;;;;;;8.00;3.30;;;24.90;77.10;;;;;;4958575;28;20493;-89
2023/09/27 07:35:52;;;;;;;4.80;3.10;;;24.90;77.40;;;;;;4942020;29;20446;-89
2023/09/27 07:38:20;;;;;;;6.20;3.73;;;24.90;77.20;;;;;;4955005;28;20492;-88
2023/09/27 07:40:47;;;;;;;3.77;3.47;;;24.90;77.40;;;;;;4958282;29;20811;-90
2023/09/27 07:43:15;;;;;;;2.73;2.53;;;24.80;77.40;;;;;;4958556;28;20804;-88
2023/09/27 07:45:45;;;;;;;3.30;3.00;;;24.80;77.20;;;;;;4958649;28;20448;-89
2023/09/27 07:48:12;;;;;;;3.63;3.30;;;24.80;77.10;;;;;;4958457;28;20493;-89
2023/09/27 07:50:40;;;;;;;5.50;4.20;;;24.90;77.40;;;;;;4962132;28;20445;-88
2023/09/27 07:53:08;;;;;;;8.20;4.50;;;24.80;77.90;;;;;;4964667;28;20588;-89
2023/09/27 07:55:43;;;;;;;6.10;5.37;;;24.80;77.90;;;;;;4958672;28;20453;-88
2023/09/27 07:58:12;;;;;;;6.60;4.33;;;24.80;78.30;;;;;;4960626;28;20441;-87
2023/09/27 08:00:40;;;;;;;9.43;5.00;;;24.70;78.30;;;;;;4957818;28;20456;-87
2023/09/27 08:03:08;;;;;;;10.23;4.30;;;24.70;78.30;;;;;;4963507;28;20448;-88
2023/09/27 08:05:42;;;;;;;5.50;5.00;;;24.70;78.70;;;;;;4977386;28;20496;-88
2023/09/27 08:08:09;;;;;;;5.87;4.73;;;24.80;78.90;;;;;;4977615;28;20446;-88
2023/09/27 08:10:43;;;;;;;5.47;3.40;;;24.70;79.10;;;;;;4977452;28;20924;-87
2023/09/27 08:13:13;;;;;;;6.07;4.03;;;24.80;79.20;;;;;;4962666;28;20477;-88
2023/09/27 08:15:41;;;;;;;4.00;3.63;;;24.70;78.80;;;;;;4958176;28;20445;-88
2023/09/27 08:18:08;;;;;;;5.20;4.20;;;24.70;78.70;;;;;;4963858;28;20577;-88
2023/09/27 08:20:35;;;;;;;5.20;3.13;;;24.70;78.80;;;;;;4966222;28;20441;-87
2023/09/27 08:23:03;;;;;;;10.40;4.20;;;24.80;78.90;;;;;;4958927;28;20466;-87
2023/09/27 08:25:30;;;;;;;4.33;3.93;;;24.80;78.70;;;;;;4958334;28;20445;-87
2023/09/27 08:28:01;;;;;;;9.27;3.77;;;24.80;78.70;;;;;;4960332;28;20445;-88
2023/09/27 08:30:28;;;;;;;10.87;4.60;;;24.80;78.70;;;;;;4960710;28;20940;-87
2023/09/27 08:32:55;;;;;;;7.20;4.50;;;24.80;78.70;;;;;;4959442;28;21048;-87
2023/09/27 08:35:22;;;;;;;9.77;4.53;;;24.80;78.80;;;;;;4960966;28;20523;-87
2023/09/27 08:37:49;;;;;;;6.93;4.73;;;24.90;79.10;;;;;;4959488;28;20483;-87
2023/09/27 08:40:16;;;;;;;7.90;4.77;;;24.90;79.00;;;;;;4959790;28;20509;-87
2023/09/27 08:42:44;;;;;;;8.03;4.77;;;24.90;79.10;;;;;;4960645;28;20941;-92
2023/09/27 08:45:15;;;;;;;6.73;4.10;;;24.90;79.20;;;;;;4960417;28;20953;-87
2023/09/27 08:47:43;;;;;;;7.53;4.57;;;25.00;79.30;;;;;;4959972;28;20921;-87
2023/09/27 08:50:13;;;;;;;4.87;4.00;;;25.00;80.20;;;;;;4960453;28;20914;-87
2023/09/27 08:52:46;;;;;;;4.60;4.20;;;25.00;79.40;;;;;;4959467;28;20481;-87
2023/09/27 08:55:13;;;;;;;7.60;4.67;;;25.00;79.30;;;;;;4958410;28;20442;-87
2023/09/27 08:57:46;;;;;;;5.43;3.53;;;25.00;79.30;;;;;;4959881;28;20505;-87
2023/09/27 09:00:19;;;;;;;7.60;4.20;;;25.00;79.30;;;;;;4961502;28;20434;-87
2023/09/27 09:02:48;;;;;;;5.63;3.23;;;25.00;79.50;;;;;;4964822;28;20429;-87
2023/09/27 09:05:16;;;;;;;8.97;3.93;;;25.00;79.40;;;;;;4962482;28;20925;-87
2023/09/27 09:07:45;;;;;;;6.50;4.17;;;25.00;79.40;;;;;;4962477;28;20930;-87
2023/09/27 09:10:16;;;;;;;4.63;3.20;;;25.00;79.40;;;;;;4962499;28;20437;-87
2023/09/27 09:12:44;;;;;;;5.23;3.53;;;25.00;79.30;;;;;;4962240;28;21063;-88
2023/09/27 09:15:15;;;;;;;6.70;3.60;;;25.00;79.30;;;;;;4958418;28;20442;-88
2023/09/27 09:17:47;;;;;;;6.90;3.27;;;25.00;79.50;;;;;;4959552;28;20434;-89
2023/09/27 09:20:22;;;;;;;4.20;3.20;;;25.10;79.30;;;;;;4959479;28;20438;-89
2023/09/27 09:22:53;;;;;;;6.60;3.53;;;25.10;79.20;;;;;;4958113;28;20468;-89
2023/09/27 09:25:22;;;;;;;4.30;3.30;;;25.10;79.00;;;;;;4960985;28;20965;-87
2023/09/27 09:28:02;;;;;;;6.03;3.57;;;25.20;79.50;;;;;;4956313;28;20478;-88
2023/09/27 09:30:35;;;;;;;4.83;2.77;;;25.20;79.00;;;;;;4955470;29;20445;-88
2023/09/27 09:33:05;;;;;;;3.83;3.33;;;25.30;78.90;;;;;;4956536;28;20490;-90
2023/09/27 09:35:32;;;;;;;5.30;3.37;;;25.30;78.80;;;;;;4956719;28;20488;-95
2023/09/27 09:38:01;;;;;;;4.77;3.03;;;25.40;78.90;;;;;;4957225;28;20528;-91
2023/09/27 09:40:29;;;;;;;4.97;3.33;;;25.40;78.50;;;;;;4957008;28;20533;-91
2023/09/27 09:42:59;;;;;;;4.50;3.40;;;25.50;78.20;;;;;;4956808;28;20461;-91
